sensor_id;sensor_type;location;lat;lon;timestamp;P1;durP1;ratioP1;P2;durP2;ratioP2
26040;SDS011;13816;53.628;9.950;2022-12-20T00:00:18;15.17;;;9.63;;
26040;SDS011;13816;53.628;9.950;2022-12-20T00:02:50;17.17;;;11.23;;
26040;SDS011;13816;53.628;9.950;2022-12-20T00:05:25;16.70;;;11.40;;
26040;SDS011;13816;53.628;9.950;2022-12-20T00:07:56;18.43;;;10.53;;
26040;SDS011;13816;53.628;9.950;2022-12-20T00:10:22;17.67;;;10.80;;
26040;SDS011;13816;53.628;9.950;2022-12-20T00:12:48;15.00;;;11.07;;
26040;SDS011;13816;53.628;9.950;2022-12-20T00:15:17;15.07;;;9.97;;
26040;SDS011;13816;53.628;9.950;2022-12-20T00:17:43;14.73;;;10.37;;
26040;SDS011;13816;53.628;9.950;2022-12-20T00:20:15;19.30;;;11.87;;
26040;SDS011;13816;53.628;9.950;2022-12-20T00:22:42;17.00;;;10.07;;
26040;SDS011;13816;53.628;9.950;2022-12-20T00:25:13;15.40;;;9.80;;
26040;SDS011;13816;53.628;9.950;2022-12-20T00:27:43;16.60;;;10.80;;
26040;SDS011;13816;53.628;9.950;2022-12-20T00:30:18;14.33;;;10.30;;
26040;SDS011;13816;53.628;9.950;2022-12-20T00:32:48;15.03;;;9.70;;
26040;SDS011;13816;53.628;9.950;2022-12-20T00:35:17;13.17;;;9.80;;
26040;SDS011;13816;53.628;9.950;2022-12-20T00:37:43;13.20;;;9.97;;
26040;SDS011;13816;53.628;9.950;2022-12-20T00:40:15;16.87;;;10.53;;
26040;SDS011;13816;53.628;9.950;2022-12-20T00:42:52;16.20;;;10.87;;
26040;SDS011;13816;53.628;9.950;2022-12-20T00:45:24;15.93;;;10.37;;
26040;SDS011;13816;53.628;9.950;2022-12-20T00:47:53;14.67;;;10.13;;
26040;SDS011;13816;53.628;9.950;2022-12-20T00:50:25;14.17;;;9.20;;
26040;SDS011;13816;53.628;9.950;2022-12-20T00:52:54;15.17;;;9.80;;
26040;SDS011;13816;53.628;9.950;2022-12-20T00:55:22;14.80;;;9.60;;
26040;SDS011;13816;53.628;9.950;2022-12-20T00:57:49;17.13;;;11.00;;
26040;SDS011;13816;53.628;9.950;2022-12-20T01:00:18;14.83;;;9.50;;
26040;SDS011;13816;53.628;9.950;2022-12-20T01:02:45;18.13;;;9.33;;
26040;SDS011;13816;53.628;9.950;2022-12-20T01:05:12;12.43;;;9.37;;
26040;SDS011;13816;53.628;9.950;2022-12-20T01:07:44;13.70;;;9.67;;
26040;SDS011;13816;53.628;9.950;2022-12-20T01:10:13;19.90;;;10.07;;
26040;SDS011;13816;53.628;9.950;2022-12-20T01:12:44;13.17;;;9.63;;
26040;SDS011;13816;53.628;9.950;2022-12-20T01:15:11;13.40;;;10.03;;
26040;SDS011;13816;53.628;9.950;2022-12-20T01:17:37;17.07;;;10.90;;
26040;SDS011;13816;53.628;9.950;2022-12-20T01:20:06;13.93;;;9.90;;
26040;SDS011;13816;53.628;9.950;2022-12-20T01:22:35;12.47;;;10.27;;
26040;SDS011;13816;53.628;9.950;2022-12-20T01:25:07;16.70;;;10.10;;
26040;SDS011;13816;53.628;9.950;2022-12-20T01:27:34;15.10;;;10.27;;
26040;SDS011;13816;53.628;9.950;2022-12-20T01:30:00;19.93;;;10.33;;
26040;SDS011;13816;53.628;9.950;2022-12-20T01:32:27;17.23;;;11.23;;
26040;SDS011;13816;53.628;9.950;2022-12-20T01:34:56;13.50;;;9.80;;
26040;SDS011;13816;53.628;9.950;2022-12-20T01:37:23;15.30;;;9.30;;
26040;SDS011;13816;53.628;9.950;2022-12-20T01:39:51;12.70;;;9.37;;
26040;SDS011;13816;53.628;9.950;2022-12-20T01:42:20;16.00;;;11.20;;
26040;SDS011;13816;53.628;9.950;2022-12-20T01:44:54;17.07;;;10.40;;
26040;SDS011;13816;53.628;9.950;2022-12-20T01:47:28;12.90;;;9.37;;
26040;SDS011;13816;53.628;9.950;2022-12-20T01:49:56;16.00;;;10.10;;
26040;SDS011;13816;53.628;9.950;2022-12-20T01:55:16;13.37;;;9.60;;
26040;SDS011;13816;53.628;9.950;2022-12-20T01:57:55;13.47;;;9.47;;
26040;SDS011;13816;53.628;9.950;2022-12-20T02:00:27;12.13;;;9.07;;
26040;SDS011;13816;53.628;9.950;2022-12-20T02:03:00;15.73;;;9.83;;
26040;SDS011;13816;53.628;9.950;2022-12-20T02:05:35;12.57;;;9.37;;
26040;SDS011;13816;53.628;9.950;2022-12-20T02:08:05;12.37;;;9.00;;
26040;SDS011;13816;53.628;9.950;2022-12-20T02:13:07;11.70;;;9.30;;
26040;SDS011;13816;53.628;9.950;2022-12-20T02:15:54;19.10;;;10.80;;
26040;SDS011;13816;53.628;9.950;2022-12-20T02:18:28;14.47;;;8.47;;
26040;SDS011;13816;53.628;9.950;2022-12-20T02:31:49;16.70;;;8.70;;
26040;SDS011;13816;53.628;9.950;2022-12-20T02:34:18;19.50;;;8.90;;
26040;SDS011;13816;53.628;9.950;2022-12-20T02:36:51;12.77;;;8.40;;
26040;SDS011;13816;53.628;9.950;2022-12-20T02:39:27;14.07;;;9.30;;
26040;SDS011;13816;53.628;9.950;2022-12-20T02:42:00;10.37;;;8.20;;
26040;SDS011;13816;53.628;9.950;2022-12-20T02:44:34;13.20;;;8.70;;
26040;SDS011;13816;53.628;9.950;2022-12-20T02:47:26;12.27;;;8.00;;
26040;SDS011;13816;53.628;9.950;2022-12-20T02:49:53;14.10;;;8.30;;
26040;SDS011;13816;53.628;9.950;2022-12-20T02:52:24;11.13;;;8.03;;
26040;SDS011;13816;53.628;9.950;2022-12-20T02:55:03;14.20;;;9.30;;
26040;SDS011;13816;53.628;9.950;2022-12-20T02:57:54;13.67;;;8.97;;
26040;SDS011;13816;53.628;9.950;2022-12-20T03:00:25;13.60;;;8.70;;
26040;SDS011;13816;53.628;9.950;2022-12-20T03:03:04;11.10;;;8.50;;
26040;SDS011;13816;53.628;9.950;2022-12-20T03:05:55;13.90;;;8.50;;
26040;SDS011;13816;53.628;9.950;2022-12-20T03:08:24;10.97;;;8.33;;
26040;SDS011;13816;53.628;9.950;2022-12-20T03:10:51;10.73;;;8.37;;
26040;SDS011;13816;53.628;9.950;2022-12-20T03:13:27;11.00;;;7.33;;
26040;SDS011;13816;53.628;9.950;2022-12-20T03:16:01;12.70;;;8.90;;
26040;SDS011;13816;53.628;9.950;2022-12-20T03:18:27;14.27;;;8.60;;
26040;SDS011;13816;53.628;9.950;2022-12-20T03:20:56;12.80;;;8.40;;
26040;SDS011;13816;53.628;9.950;2022-12-20T03:23:22;18.03;;;7.90;;
26040;SDS011;13816;53.628;9.950;2022-12-20T03:25:48;10.10;;;7.63;;
26040;SDS011;13816;53.628;9.950;2022-12-20T03:28:24;15.07;;;8.07;;
26040;SDS011;13816;53.628;9.950;2022-12-20T03:30:50;8.33;;;7.13;;
26040;SDS011;13816;53.628;9.950;2022-12-20T03:33:17;10.77;;;7.73;;
26040;SDS011;13816;53.628;9.950;2022-12-20T03:35:46;15.30;;;6.60;;
26040;SDS011;13816;53.628;9.950;2022-12-20T03:38:16;13.20;;;8.07;;
26040;SDS011;13816;53.628;9.950;2022-12-20T03:40:42;8.87;;;7.40;;
26040;SDS011;13816;53.628;9.950;2022-12-20T03:43:20;9.40;;;7.20;;
26040;SDS011;13816;53.628;9.950;2022-12-20T03:45:49;10.50;;;7.63;;
26040;SDS011;13816;53.628;9.950;2022-12-20T03:48:16;11.83;;;8.00;;
26040;SDS011;13816;53.628;9.950;2022-12-20T03:50:48;12.17;;;7.63;;
26040;SDS011;13816;53.628;9.950;2022-12-20T03:53:19;9.00;;;7.30;;
26040;SDS011;13816;53.628;9.950;2022-12-20T03:55:57;12.10;;;8.20;;
26040;SDS011;13816;53.628;9.950;2022-12-20T03:58:26;10.90;;;7.83;;
26040;SDS011;13816;53.628;9.950;2022-12-20T04:00:55;9.97;;;7.00;;
26040;SDS011;13816;53.628;9.950;2022-12-20T04:03:39;9.27;;;7.43;;
26040;SDS011;13816;53.628;9.950;2022-12-20T04:06:07;10.60;;;8.00;;
26040;SDS011;13816;53.628;9.950;2022-12-20T04:08:37;10.23;;;7.40;;
26040;SDS011;13816;53.628;9.950;2022-12-20T04:11:03;11.10;;;7.27;;
26040;SDS011;13816;53.628;9.950;2022-12-20T04:14:03;11.43;;;7.27;;
26040;SDS011;13816;53.628;9.950;2022-12-20T04:16:35;11.10;;;7.60;;
26040;SDS011;13816;53.628;9.950;2022-12-20T04:19:08;9.93;;;7.83;;
26040;SDS011;13816;53.628;9.950;2022-12-20T04:21:41;10.00;;;7.17;;
26040;SDS011;13816;53.628;9.950;2022-12-20T04:24:18;11.93;;;8.07;;
26040;SDS011;13816;53.628;9.950;2022-12-20T04:26:57;9.27;;;6.63;;
26040;SDS011;13816;53.628;9.950;2022-12-20T04:29:24;14.20;;;7.60;;
26040;SDS011;13816;53.628;9.950;2022-12-20T04:31:51;15.40;;;7.60;;
26040;SDS011;13816;53.628;9.950;2022-12-20T04:34:24;11.57;;;6.35;;
26040;SDS011;13816;53.628;9.950;2022-12-20T04:36:59;12.43;;;7.30;;
26040;SDS011;13816;53.628;9.950;2022-12-20T04:39:52;10.13;;;7.43;;
26040;SDS011;13816;53.628;9.950;2022-12-20T04:42:26;10.67;;;7.43;;
26040;SDS011;13816;53.628;9.950;2022-12-20T04:45:12;11.67;;;7.90;;
26040;SDS011;13816;53.628;9.950;2022-12-20T04:47:41;11.30;;;6.87;;
26040;SDS011;13816;53.628;9.950;2022-12-20T04:50:12;12.10;;;7.10;;
26040;SDS011;13816;53.628;9.950;2022-12-20T04:52:42;10.40;;;6.73;;
26040;SDS011;13816;53.628;9.950;2022-12-20T04:55:38;8.10;;;6.70;;
26040;SDS011;13816;53.628;9.950;2022-12-20T04:58:07;7.43;;;6.70;;
26040;SDS011;13816;53.628;9.950;2022-12-20T05:00:38;11.60;;;7.40;;
26040;SDS011;13816;53.628;9.950;2022-12-20T05:03:18;9.73;;;7.23;;
26040;SDS011;13816;53.628;9.950;2022-12-20T05:05:44;12.60;;;7.57;;
26040;SDS011;13816;53.628;9.950;2022-12-20T05:08:14;9.73;;;6.90;;
26040;SDS011;13816;53.628;9.950;2022-12-20T05:10:44;10.53;;;7.27;;
26040;SDS011;13816;53.628;9.950;2022-12-20T05:13:15;13.63;;;6.90;;
26040;SDS011;13816;53.628;9.950;2022-12-20T05:15:48;9.33;;;7.87;;
26040;SDS011;13816;53.628;9.950;2022-12-20T05:18:25;11.50;;;8.13;;
26040;SDS011;13816;53.628;9.950;2022-12-20T05:21:04;8.80;;;7.37;;
26040;SDS011;13816;53.628;9.950;2022-12-20T05:23:51;12.53;;;7.63;;
26040;SDS011;13816;53.628;9.950;2022-12-20T05:26:55;9.13;;;7.37;;
26040;SDS011;13816;53.628;9.950;2022-12-20T05:29:22;10.73;;;7.60;;
26040;SDS011;13816;53.628;9.950;2022-12-20T05:31:48;10.77;;;7.70;;
26040;SDS011;13816;53.628;9.950;2022-12-20T05:34:15;10.17;;;7.60;;
26040;SDS011;13816;53.628;9.950;2022-12-20T05:36:49;9.60;;;7.30;;
26040;SDS011;13816;53.628;9.950;2022-12-20T05:39:28;14.27;;;8.10;;
26040;SDS011;13816;53.628;9.950;2022-12-20T05:42:04;11.33;;;7.50;;
26040;SDS011;13816;53.628;9.950;2022-12-20T05:44:33;14.87;;;7.07;;
26040;SDS011;13816;53.628;9.950;2022-12-20T05:46:59;9.20;;;7.80;;
26040;SDS011;13816;53.628;9.950;2022-12-20T05:49:32;10.10;;;7.50;;
26040;SDS011;13816;53.628;9.950;2022-12-20T05:52:06;10.73;;;7.73;;
26040;SDS011;13816;53.628;9.950;2022-12-20T05:54:39;9.90;;;7.10;;
26040;SDS011;13816;53.628;9.950;2022-12-20T05:57:20;9.10;;;7.17;;
26040;SDS011;13816;53.628;9.950;2022-12-20T05:59:50;11.53;;;7.93;;
26040;SDS011;13816;53.628;9.950;2022-12-20T06:02:23;10.57;;;7.53;;
26040;SDS011;13816;53.628;9.950;2022-12-20T06:05:02;10.97;;;7.73;;
26040;SDS011;13816;53.628;9.950;2022-12-20T06:07:37;9.30;;;7.33;;
26040;SDS011;13816;53.628;9.950;2022-12-20T06:10:06;10.60;;;7.40;;
26040;SDS011;13816;53.628;9.950;2022-12-20T06:13:10;11.80;;;7.90;;
26040;SDS011;13816;53.628;9.950;2022-12-20T06:15:37;16.27;;;8.00;;
26040;SDS011;13816;53.628;9.950;2022-12-20T06:18:04;15.97;;;8.70;;
26040;SDS011;13816;53.628;9.950;2022-12-20T06:20:37;9.60;;;7.17;;
26040;SDS011;13816;53.628;9.950;2022-12-20T06:23:11;13.23;;;8.53;;
26040;SDS011;13816;53.628;9.950;2022-12-20T06:25:49;16.93;;;7.73;;
26040;SDS011;13816;53.628;9.950;2022-12-20T06:28:19;12.37;;;7.60;;
26040;SDS011;13816;53.628;9.950;2022-12-20T06:31:06;12.70;;;8.23;;
26040;SDS011;13816;53.628;9.950;2022-12-20T06:33:48;11.93;;;8.90;;
26040;SDS011;13816;53.628;9.950;2022-12-20T06:36:19;15.10;;;9.00;;
26040;SDS011;13816;53.628;9.950;2022-12-20T06:38:46;15.03;;;8.90;;
26040;SDS011;13816;53.628;9.950;2022-12-20T06:41:17;10.33;;;7.67;;
26040;SDS011;13816;53.628;9.950;2022-12-20T06:44:06;13.00;;;7.90;;
26040;SDS011;13816;53.628;9.950;2022-12-20T07:01:34;11.57;;;7.00;;
26040;SDS011;13816;53.628;9.950;2022-12-20T07:16:35;10.43;;;7.30;;
26040;SDS011;13816;53.628;9.950;2022-12-20T07:19:56;11.83;;;8.00;;
26040;SDS011;13816;53.628;9.950;2022-12-20T07:22:58;13.60;;;7.97;;
26040;SDS011;13816;53.628;9.950;2022-12-20T07:26:54;12.17;;;8.20;;
26040;SDS011;13816;53.628;9.950;2022-12-20T07:30:47;10.60;;;8.13;;
26040;SDS011;13816;53.628;9.950;2022-12-20T07:33:45;9.80;;;7.97;;
26040;SDS011;13816;53.628;9.950;2022-12-20T07:37:02;9.63;;;8.07;;
26040;SDS011;13816;53.628;9.950;2022-12-20T07:40:41;13.43;;;8.30;;
26040;SDS011;13816;53.628;9.950;2022-12-20T07:43:46;11.50;;;9.23;;
26040;SDS011;13816;53.628;9.950;2022-12-20T07:50:20;11.20;;;8.43;;
26040;SDS011;13816;53.628;9.950;2022-12-20T07:54:08;12.50;;;8.57;;
26040;SDS011;13816;53.628;9.950;2022-12-20T07:57:35;11.23;;;8.77;;
26040;SDS011;13816;53.628;9.950;2022-12-20T08:00:22;12.77;;;9.03;;
26040;SDS011;13816;53.628;9.950;2022-12-20T08:02:59;20.90;;;9.97;;
26040;SDS011;13816;53.628;9.950;2022-12-20T08:05:51;11.33;;;8.33;;
26040;SDS011;13816;53.628;9.950;2022-12-20T08:08:25;12.10;;;9.00;;
26040;SDS011;13816;53.628;9.950;2022-12-20T08:10:59;13.03;;;9.00;;
26040;SDS011;13816;53.628;9.950;2022-12-20T08:13:33;10.67;;;8.47;;
26040;SDS011;13816;53.628;9.950;2022-12-20T08:16:11;11.23;;;7.93;;
26040;SDS011;13816;53.628;9.950;2022-12-20T08:18:48;13.40;;;8.90;;
26040;SDS011;13816;53.628;9.950;2022-12-20T08:21:17;10.23;;;7.67;;
26040;SDS011;13816;53.628;9.950;2022-12-20T08:23:52;12.87;;;8.63;;
26040;SDS011;13816;53.628;9.950;2022-12-20T08:26:24;10.80;;;7.90;;
26040;SDS011;13816;53.628;9.950;2022-12-20T08:29:04;13.17;;;8.20;;
26040;SDS011;13816;53.628;9.950;2022-12-20T08:31:38;9.20;;;7.40;;
26040;SDS011;13816;53.628;9.950;2022-12-20T08:34:09;11.40;;;8.30;;
26040;SDS011;13816;53.628;9.950;2022-12-20T08:36:44;9.90;;;7.33;;
26040;SDS011;13816;53.628;9.950;2022-12-20T08:39:18;11.17;;;7.40;;
26040;SDS011;13816;53.628;9.950;2022-12-20T08:41:53;10.60;;;7.97;;
26040;SDS011;13816;53.628;9.950;2022-12-20T08:44:36;11.90;;;7.63;;
26040;SDS011;13816;53.628;9.950;2022-12-20T08:47:08;9.20;;;7.17;;
26040;SDS011;13816;53.628;9.950;2022-12-20T08:49:39;9.97;;;7.43;;
26040;SDS011;13816;53.628;9.950;2022-12-20T08:52:11;13.53;;;6.80;;
26040;SDS011;13816;53.628;9.950;2022-12-20T08:54:51;11.93;;;8.07;;
26040;SDS011;13816;53.628;9.950;2022-12-20T08:57:22;8.10;;;7.27;;
26040;SDS011;13816;53.628;9.950;2022-12-20T08:59:57;11.37;;;7.53;;
26040;SDS011;13816;53.628;9.950;2022-12-20T09:02:28;11.57;;;7.90;;
26040;SDS011;13816;53.628;9.950;2022-12-20T09:05:09;8.63;;;6.90;;
26040;SDS011;13816;53.628;9.950;2022-12-20T09:07:38;9.60;;;6.60;;
26040;SDS011;13816;53.628;9.950;2022-12-20T09:10:07;11.57;;;7.50;;
26040;SDS011;13816;53.628;9.950;2022-12-20T09:12:37;9.37;;;7.10;;
26040;SDS011;13816;53.628;9.950;2022-12-20T09:15:04;9.13;;;7.40;;
26040;SDS011;13816;53.628;9.950;2022-12-20T09:17:30;11.13;;;7.30;;
26040;SDS011;13816;53.628;9.950;2022-12-20T09:19:56;10.20;;;7.80;;
26040;SDS011;13816;53.628;9.950;2022-12-20T09:22:28;9.77;;;7.77;;
26040;SDS011;13816;53.628;9.950;2022-12-20T09:25:10;12.23;;;7.80;;
26040;SDS011;13816;53.628;9.950;2022-12-20T09:27:52;10.53;;;7.10;;
26040;SDS011;13816;53.628;9.950;2022-12-20T09:30:36;10.00;;;7.43;;
26040;SDS011;13816;53.628;9.950;2022-12-20T09:33:43;12.00;;;6.97;;
26040;SDS011;13816;53.628;9.950;2022-12-20T09:36:18;11.07;;;8.40;;
26040;SDS011;13816;53.628;9.950;2022-12-20T09:38:48;8.93;;;7.27;;
26040;SDS011;13816;53.628;9.950;2022-12-20T09:41:24;10.00;;;7.40;;
26040;SDS011;13816;53.628;9.950;2022-12-20T09:43:57;8.87;;;6.57;;
26040;SDS011;13816;53.628;9.950;2022-12-20T09:46:32;14.67;;;7.83;;
26040;SDS011;13816;53.628;9.950;2022-12-20T09:49:09;10.80;;;7.30;;
26040;SDS011;13816;53.628;9.950;2022-12-20T09:52:03;9.97;;;7.40;;
26040;SDS011;13816;53.628;9.950;2022-12-20T09:55:16;9.63;;;7.40;;
26040;SDS011;13816;53.628;9.950;2022-12-20T10:01:36;11.00;;;7.70;;
26040;SDS011;13816;53.628;9.950;2022-12-20T10:04:23;12.03;;;7.33;;
26040;SDS011;13816;53.628;9.950;2022-12-20T10:07:00;12.17;;;8.90;;
26040;SDS011;13816;53.628;9.950;2022-12-20T10:09:46;15.53;;;9.00;;
26040;SDS011;13816;53.628;9.950;2022-12-20T10:12:43;15.40;;;8.93;;
26040;SDS011;13816;53.628;9.950;2022-12-20T10:18:08;12.10;;;8.87;;
26040;SDS011;13816;53.628;9.950;2022-12-20T10:26:26;10.00;;;8.53;;
26040;SDS011;13816;53.628;9.950;2022-12-20T10:28:55;12.77;;;8.70;;
26040;SDS011;13816;53.628;9.950;2022-12-20T10:31:25;15.13;;;9.60;;
26040;SDS011;13816;53.628;9.950;2022-12-20T10:34:00;11.97;;;10.00;;
26040;SDS011;13816;53.628;9.950;2022-12-20T10:36:39;10.23;;;7.93;;
26040;SDS011;13816;53.628;9.950;2022-12-20T10:39:23;13.90;;;8.77;;
26040;SDS011;13816;53.628;9.950;2022-12-20T10:42:22;9.17;;;8.03;;
26040;SDS011;13816;53.628;9.950;2022-12-20T10:44:57;12.90;;;8.43;;
26040;SDS011;13816;53.628;9.950;2022-12-20T10:47:34;15.17;;;8.77;;
26040;SDS011;13816;53.628;9.950;2022-12-20T10:50:11;10.80;;;8.50;;
26040;SDS011;13816;53.628;9.950;2022-12-20T10:52:45;12.50;;;8.33;;
26040;SDS011;13816;53.628;9.950;2022-12-20T10:58:11;17.60;;;7.70;;
26040;SDS011;13816;53.628;9.950;2022-12-20T11:00:40;9.27;;;7.37;;
26040;SDS011;13816;53.628;9.950;2022-12-20T11:03:14;13.83;;;7.33;;
26040;SDS011;13816;53.628;9.950;2022-12-20T11:05:53;10.20;;;6.33;;
26040;SDS011;13816;53.628;9.950;2022-12-20T11:08:28;11.77;;;7.27;;
26040;SDS011;13816;53.628;9.950;2022-12-20T11:11:16;12.63;;;7.00;;
26040;SDS011;13816;53.628;9.950;2022-12-20T11:13:48;7.03;;;5.80;;
26040;SDS011;13816;53.628;9.950;2022-12-20T11:16:25;7.07;;;5.17;;
26040;SDS011;13816;53.628;9.950;2022-12-20T11:19:09;12.00;;;5.90;;
26040;SDS011;13816;53.628;9.950;2022-12-20T11:21:47;8.70;;;5.80;;
26040;SDS011;13816;53.628;9.950;2022-12-20T11:30:02;7.77;;;5.50;;
26040;SDS011;13816;53.628;9.950;2022-12-20T11:35:13;11.40;;;5.60;;
26040;SDS011;13816;53.628;9.950;2022-12-20T11:37:55;6.87;;;5.40;;
26040;SDS011;13816;53.628;9.950;2022-12-20T11:40:50;5.50;;;4.27;;
26040;SDS011;13816;53.628;9.950;2022-12-20T11:44:40;6.73;;;5.23;;
26040;SDS011;13816;53.628;9.950;2022-12-20T11:46:46;12.23;;;5.70;;
26040;SDS011;13816;53.628;9.950;2022-12-20T11:52:25;10.23;;;5.90;;
26040;SDS011;13816;53.628;9.950;2022-12-20T12:00:34;8.73;;;5.50;;
26040;SDS011;13816;53.628;9.950;2022-12-20T12:03:10;8.60;;;6.23;;
26040;SDS011;13816;53.628;9.950;2022-12-20T12:05:59;9.97;;;5.43;;
26040;SDS011;13816;53.628;9.950;2022-12-20T12:09:15;8.40;;;5.80;;
26040;SDS011;13816;53.628;9.950;2022-12-20T12:11:53;8.10;;;5.83;;
26040;SDS011;13816;53.628;9.950;2022-12-20T12:20:08;11.80;;;5.70;;
26040;SDS011;13816;53.628;9.950;2022-12-20T12:22:42;7.80;;;5.07;;
26040;SDS011;13816;53.628;9.950;2022-12-20T12:25:16;7.17;;;5.77;;
26040;SDS011;13816;53.628;9.950;2022-12-20T12:27:51;9.60;;;5.50;;
26040;SDS011;13816;53.628;9.950;2022-12-20T12:30:23;7.60;;;5.97;;
26040;SDS011;13816;53.628;9.950;2022-12-20T12:33:01;7.47;;;6.23;;
26040;SDS011;13816;53.628;9.950;2022-12-20T12:39:11;7.50;;;5.60;;
26040;SDS011;13816;53.628;9.950;2022-12-20T12:51:05;8.70;;;6.60;;
26040;SDS011;13816;53.628;9.950;2022-12-20T12:53:49;13.30;;;6.50;;
26040;SDS011;13816;53.628;9.950;2022-12-20T13:08:02;12.03;;;7.53;;
26040;SDS011;13816;53.628;9.950;2022-12-20T13:10:55;9.90;;;7.13;;
26040;SDS011;13816;53.628;9.950;2022-12-20T13:13:27;11.57;;;7.37;;
26040;SDS011;13816;53.628;9.950;2022-12-20T13:16:09;12.50;;;7.30;;
26040;SDS011;13816;53.628;9.950;2022-12-20T13:18:54;9.37;;;6.53;;
26040;SDS011;13816;53.628;9.950;2022-12-20T13:21:38;9.93;;;7.47;;
26040;SDS011;13816;53.628;9.950;2022-12-20T13:27:01;9.53;;;7.80;;
26040;SDS011;13816;53.628;9.950;2022-12-20T13:35:29;12.00;;;7.40;;
26040;SDS011;13816;53.628;9.950;2022-12-20T13:41:24;11.50;;;6.57;;
26040;SDS011;13816;53.628;9.950;2022-12-20T13:44:17;9.67;;;6.60;;
26040;SDS011;13816;53.628;9.950;2022-12-20T13:49:51;7.87;;;6.60;;
26040;SDS011;13816;53.628;9.950;2022-12-20T13:52:20;10.80;;;8.10;;
26040;SDS011;13816;53.628;9.950;2022-12-20T13:54:58;13.67;;;7.70;;
26040;SDS011;13816;53.628;9.950;2022-12-20T13:57:38;11.83;;;8.20;;
26040;SDS011;13816;53.628;9.950;2022-12-20T14:00:29;11.20;;;8.70;;
26040;SDS011;13816;53.628;9.950;2022-12-20T14:03:01;10.30;;;7.90;;
26040;SDS011;13816;53.628;9.950;2022-12-20T14:08:21;11.53;;;8.00;;
26040;SDS011;13816;53.628;9.950;2022-12-20T14:11:38;14.80;;;8.10;;
26040;SDS011;13816;53.628;9.950;2022-12-20T14:13:58;11.70;;;7.93;;
26040;SDS011;13816;53.628;9.950;2022-12-20T14:16:44;12.20;;;8.70;;
26040;SDS011;13816;53.628;9.950;2022-12-20T14:19:14;12.60;;;9.23;;
26040;SDS011;13816;53.628;9.950;2022-12-20T14:21:43;12.40;;;8.47;;
26040;SDS011;13816;53.628;9.950;2022-12-20T14:24:17;9.00;;;7.67;;
26040;SDS011;13816;53.628;9.950;2022-12-20T14:26:50;14.27;;;8.43;;
26040;SDS011;13816;53.628;9.950;2022-12-20T14:29:28;11.73;;;8.70;;
26040;SDS011;13816;53.628;9.950;2022-12-20T14:32:02;12.77;;;8.40;;
26040;SDS011;13816;53.628;9.950;2022-12-20T14:34:32;11.67;;;9.20;;
26040;SDS011;13816;53.628;9.950;2022-12-20T14:42:34;11.50;;;8.23;;
26040;SDS011;13816;53.628;9.950;2022-12-20T14:47:37;10.60;;;7.90;;
26040;SDS011;13816;53.628;9.950;2022-12-20T14:50:22;11.60;;;8.30;;
26040;SDS011;13816;53.628;9.950;2022-12-20T14:52:53;11.53;;;8.40;;
26040;SDS011;13816;53.628;9.950;2022-12-20T14:55:21;10.53;;;8.20;;
26040;SDS011;13816;53.628;9.950;2022-12-20T14:58:25;13.50;;;8.63;;
26040;SDS011;13816;53.628;9.950;2022-12-20T15:00:57;13.80;;;8.80;;
26040;SDS011;13816;53.628;9.950;2022-12-20T15:03:30;12.90;;;8.80;;
26040;SDS011;13816;53.628;9.950;2022-12-20T15:05:59;9.87;;;8.03;;
26040;SDS011;13816;53.628;9.950;2022-12-20T15:08:31;13.40;;;8.43;;
26040;SDS011;13816;53.628;9.950;2022-12-20T15:13:40;10.37;;;8.50;;
26040;SDS011;13816;53.628;9.950;2022-12-20T15:16:15;14.40;;;8.87;;
26040;SDS011;13816;53.628;9.950;2022-12-20T15:18:44;12.10;;;8.63;;
26040;SDS011;13816;53.628;9.950;2022-12-20T15:21:39;12.67;;;9.20;;
26040;SDS011;13816;53.628;9.950;2022-12-20T15:24:25;15.70;;;10.30;;
26040;SDS011;13816;53.628;9.950;2022-12-20T15:26:55;18.97;;;9.87;;
26040;SDS011;13816;53.628;9.950;2022-12-20T15:29:22;11.80;;;9.20;;
26040;SDS011;13816;53.628;9.950;2022-12-20T15:32:03;12.00;;;8.90;;
26040;SDS011;13816;53.628;9.950;2022-12-20T15:34:36;11.70;;;9.20;;
26040;SDS011;13816;53.628;9.950;2022-12-20T15:37:09;11.30;;;8.43;;
26040;SDS011;13816;53.628;9.950;2022-12-20T15:39:39;16.50;;;9.47;;
26040;SDS011;13816;53.628;9.950;2022-12-20T15:42:06;16.13;;;8.87;;
26040;SDS011;13816;53.628;9.950;2022-12-20T15:44:37;13.37;;;8.87;;
26040;SDS011;13816;53.628;9.950;2022-12-20T15:47:08;15.10;;;8.90;;
26040;SDS011;13816;53.628;9.950;2022-12-20T15:49:47;16.33;;;10.17;;
26040;SDS011;13816;53.628;9.950;2022-12-20T15:52:20;13.27;;;8.80;;
26040;SDS011;13816;53.628;9.950;2022-12-20T15:54:52;11.87;;;9.50;;
26040;SDS011;13816;53.628;9.950;2022-12-20T15:57:18;13.50;;;9.27;;
26040;SDS011;13816;53.628;9.950;2022-12-20T15:59:50;14.10;;;8.63;;
26040;SDS011;13816;53.628;9.950;2022-12-20T16:04:53;12.73;;;9.80;;
26040;SDS011;13816;53.628;9.950;2022-12-20T16:07:26;16.43;;;9.03;;
26040;SDS011;13816;53.628;9.950;2022-12-20T16:09:52;17.03;;;10.23;;
26040;SDS011;13816;53.628;9.950;2022-12-20T16:12:20;13.40;;;10.00;;
26040;SDS011;13816;53.628;9.950;2022-12-20T16:14:55;13.00;;;9.00;;
26040;SDS011;13816;53.628;9.950;2022-12-20T16:17:21;13.23;;;9.10;;
26040;SDS011;13816;53.628;9.950;2022-12-20T16:19:47;11.53;;;9.00;;
26040;SDS011;13816;53.628;9.950;2022-12-20T16:22:17;13.63;;;9.50;;
26040;SDS011;13816;53.628;9.950;2022-12-20T16:24:47;15.50;;;9.30;;
26040;SDS011;13816;53.628;9.950;2022-12-20T16:27:13;13.17;;;8.60;;
26040;SDS011;13816;53.628;9.950;2022-12-20T16:29:39;11.23;;;9.70;;
26040;SDS011;13816;53.628;9.950;2022-12-20T16:32:13;16.83;;;8.50;;
26040;SDS011;13816;53.628;9.950;2022-12-20T16:34:40;17.27;;;9.57;;
26040;SDS011;13816;53.628;9.950;2022-12-20T16:37:06;12.03;;;9.23;;
26040;SDS011;13816;53.628;9.950;2022-12-20T16:39:32;18.77;;;11.17;;
26040;SDS011;13816;53.628;9.950;2022-12-20T16:41:58;15.53;;;8.90;;
26040;SDS011;13816;53.628;9.950;2022-12-20T16:44:29;13.60;;;9.67;;
26040;SDS011;13816;53.628;9.950;2022-12-20T16:46:54;14.10;;;11.17;;
26040;SDS011;13816;53.628;9.950;2022-12-20T16:49:20;14.60;;;10.63;;
26040;SDS011;13816;53.628;9.950;2022-12-20T16:51:49;11.70;;;9.90;;
26040;SDS011;13816;53.628;9.950;2022-12-20T16:54:16;13.27;;;9.70;;
26040;SDS011;13816;53.628;9.950;2022-12-20T16:56:50;20.73;;;10.90;;
26040;SDS011;13816;53.628;9.950;2022-12-20T16:59:19;13.47;;;10.10;;
26040;SDS011;13816;53.628;9.950;2022-12-20T17:01:46;17.97;;;10.27;;
26040;SDS011;13816;53.628;9.950;2022-12-20T17:04:16;10.97;;;8.80;;
26040;SDS011;13816;53.628;9.950;2022-12-20T17:06:43;12.60;;;10.00;;
26040;SDS011;13816;53.628;9.950;2022-12-20T17:09:12;12.10;;;9.20;;
26040;SDS011;13816;53.628;9.950;2022-12-20T17:11:40;13.50;;;10.13;;
26040;SDS011;13816;53.628;9.950;2022-12-20T17:14:06;16.10;;;10.40;;
26040;SDS011;13816;53.628;9.950;2022-12-20T17:16:40;16.93;;;9.53;;
26040;SDS011;13816;53.628;9.950;2022-12-20T17:19:08;20.23;;;9.60;;
26040;SDS011;13816;53.628;9.950;2022-12-20T17:21:35;10.93;;;8.63;;
26040;SDS011;13816;53.628;9.950;2022-12-20T17:24:18;14.00;;;10.90;;
26040;SDS011;13816;53.628;9.950;2022-12-20T17:26:46;15.20;;;9.60;;
26040;SDS011;13816;53.628;9.950;2022-12-20T17:29:12;11.20;;;10.00;;
26040;SDS011;13816;53.628;9.950;2022-12-20T17:31:38;12.93;;;9.60;;
26040;SDS011;13816;53.628;9.950;2022-12-20T17:34:20;10.90;;;9.20;;
26040;SDS011;13816;53.628;9.950;2022-12-20T17:36:52;11.50;;;9.57;;
26040;SDS011;13816;53.628;9.950;2022-12-20T17:39:19;16.10;;;10.07;;
26040;SDS011;13816;53.628;9.950;2022-12-20T17:41:46;14.00;;;10.60;;
26040;SDS011;13816;53.628;9.950;2022-12-20T17:46:45;11.53;;;10.13;;
26040;SDS011;13816;53.628;9.950;2022-12-20T17:49:11;14.00;;;10.30;;